Time;durP1;ratioP1;P1;durP2;ratioP2;P2;SDS_P1;SDS_P2;PMS_P1;PMS_P2;Temp;Humidity;BMP_temperature;BMP_pressure;BME280_temperature;BME280_humidity;BME280_pressure;Samples;Min_cycle;Max_cycle;Signal;HPM_P1;HPM_P2
2023/10/18 00:03:53;;;;;;;6.33;5.40;;;;;;;6.00;56.12;99313.34;10471236;28;20768;-67
2023/10/18 00:08:58;;;;;;;6.87;5.37;;;;;;;5.14;56.64;99498.31;10477116;28;20737;-67
2023/10/18 00:14:00;;;;;;;9.63;6.20;;;;;;;5.70;56.14;99368.72;10478191;28;20772;-67
2023/10/18 00:19:01;;;;;;;7.03;5.70;;;;;;;5.05;57.24;99473.56;10498327;28;20418;-68
2023/10/18 00:24:04;;;;;;;9.30;6.30;;;;;;;5.59;56.24;99383.13;10485911;28;20236;-67
2023/10/18 00:29:05;;;;;;;9.17;5.60;;;;;;;5.01;57.33;99452.81;10474843;28;20338;-67
2023/10/18 00:34:07;;;;;;;7.63;6.00;;;;;;;5.96;55.42;99354.47;10494406;28;20236;-67
2023/10/18 00:39:21;;;;;;;9.47;5.83;;;;;;;5.58;56.35;99344.28;10497163;28;20872;-67
2023/10/18 00:44:23;;;;;;;6.87;5.73;;;;;;;5.77;56.62;99262.69;10496396;28;20234;-67
2023/10/18 00:49:24;;;;;;;7.83;6.17;;;;;;;5.51;55.82;99418.41;10493889;28;20252;-68
2023/10/18 00:54:26;;;;;;;7.57;6.40;;;;;;;5.54;56.02;99406.66;10493369;28;20238;-67
2023/10/18 00:59:28;;;;;;;13.13;6.97;;;;;;;5.99;55.79;99282.44;10484296;28;20767;-67
2023/10/18 01:04:34;;;;;;;8.40;7.13;;;;;;;5.18;56.67;99433.34;10499887;28;20235;-68
2023/10/18 01:09:36;;;;;;;8.37;5.90;;;;;;;4.94;57.87;99396.91;10476485;28;20315;-68
2023/10/18 01:14:37;;;;;;;8.57;6.33;;;;;;;4.32;58.04;99548.81;10495481;28;20243;-68
2023/10/18 01:19:43;;;;;;;9.80;6.77;;;;;;;4.91;57.53;99413.13;10489823;28;20224;-66
2023/10/18 01:24:46;;;;;;;11.00;7.77;;;;;;;4.58;58.65;99408.44;10489980;28;20237;-66
2023/10/18 01:29:47;;;;;;;10.77;7.73;;;;;;;4.36;58.64;99443.38;10493402;28;20233;-67
2023/10/18 01:34:49;;;;;;;9.13;7.23;;;;;;;4.96;57.84;99315.38;10475945;28;20254;-68
2023/10/18 01:39:52;;;;;;;9.33;7.10;;;;;;;4.55;57.34;99482.94;10495084;28;20238;-68
2023/10/18 01:44:59;;;;;;;9.73;8.10;;;;;;;5.29;56.87;99331.44;10495976;28;20222;-68
2023/10/18 01:50:01;;;;;;;8.37;6.77;;;;;;;5.02;57.08;99365.13;10492881;28;20231;-68
2023/10/18 01:55:03;;;;;;;14.60;8.40;;;;;;;5.33;56.63;99299.13;10473389;28;20233;-67
2023/10/18 02:00:12;;;;;;;8.63;7.40;;;;;;;5.47;56.08;99324.19;10498351;28;20235;-67
2023/10/18 02:05:16;;;;;;;9.67;7.27;;;;;;;5.40;57.06;99253.34;10500411;28;20238;-66
2023/10/18 02:10:23;;;;;;;9.33;7.10;;;;;;;5.65;56.21;99233.00;10499424;28;20721;-66
2023/10/18 02:15:26;;;;;;;11.67;7.27;;;;;;;4.85;56.96;99374.00;10492726;28;20992;-66
2023/10/18 02:20:28;;;;;;;9.33;7.57;;;;;;;5.24;56.28;99310.69;10497118;28;20814;-66
2023/10/18 02:25:43;;;;;;;10.37;7.23;;;;;;;5.28;56.28;99300.56;10482534;28;20651;-65
2023/10/18 02:30:45;;;;;;;7.60;6.80;;;;;;;5.01;56.85;99329.00;10496867;28;20255;-66
2023/10/18 02:35:47;;;;;;;11.53;7.60;;;;;;;5.69;55.33;99335.22;10500442;28;20239;-65
2023/10/18 02:40:49;;;;;;;9.63;7.07;;;;;;;5.41;55.29;99401.78;10499397;28;20254;-66
2023/10/18 02:45:51;;;;;;;9.43;7.07;;;;;;;6.65;53.54;99250.44;10505367;28;20243;-66
2023/10/18 02:50:54;;;;;;;8.67;6.80;;;;;;;5.78;54.89;99373.22;10500202;28;20669;-66
2023/10/18 02:55:56;;;;;;;9.13;7.27;;;;;;;5.29;55.88;99406.53;10502418;28;20253;-66
2023/10/18 03:01:05;;;;;;;8.40;6.60;;;;;;;5.45;55.78;99336.78;10497636;28;20303;-66
2023/10/18 03:06:13;;;;;;;8.73;6.97;;;;;;;4.83;56.79;99418.38;10501809;28;20239;-66
2023/10/18 03:11:20;;;;;;;8.13;7.03;;;;;;;5.34;56.36;99297.28;10497375;28;20294;-65
2023/10/18 03:16:39;;;;;;;10.03;7.03;;;;;;;5.42;56.03;99302.63;10502626;28;20317;-65
2023/10/18 03:21:43;;;;;;;9.17;7.97;;;;;;;5.13;55.72;99411.75;10476858;28;20218;-65
2023/10/18 03:26:45;;;;;;;11.50;7.03;;;;;;;5.95;54.66;99262.53;10460356;28;20262;-66
2023/10/18 03:31:50;;;;;;;10.60;7.23;;;;;;;4.96;56.82;99310.06;10444912;28;20234;-66
2023/10/18 03:36:52;;;;;;;9.37;7.57;;;;;;;4.85;57.75;99222.88;10456305;28;20239;-66
2023/10/18 03:41:58;;;;;;;10.07;8.17;;;;;;;4.87;57.49;99250.88;10460900;28;20233;-66
2023/10/18 03:57:16;;;;;;;11.47;8.83;;;;;;;5.57;55.68;99206.41;10491976;28;20241;-66
2023/10/18 04:02:27;;;;;;;10.10;8.97;;;;;;;4.96;55.92;99376.38;10498442;28;20254;-66
2023/10/18 04:07:29;;;;;;;11.67;8.30;;;;;;;5.51;55.09;99284.88;10503450;28;20258;-66
2023/10/18 04:12:32;;;;;;;9.43;8.53;;;;;;;4.72;56.25;99369.94;10507514;28;20309;-66
2023/10/18 04:22:36;;;;;;;12.57;9.87;;;;;;;5.18;56.44;99207.03;10504237;28;20325;-66
2023/10/18 04:27:39;;;;;;;12.30;9.67;;;;;;;4.90;57.57;99178.16;10497989;28;20230;-66
2023/10/18 04:32:40;;;;;;;10.00;8.00;;;;;;;4.16;58.22;99334.09;10499524;28;20226;-66
2023/10/18 04:37:43;;;;;;;13.93;9.30;;;;;;;4.85;57.12;99207.81;10498049;28;20227;-66
2023/10/18 04:42:46;;;;;;;11.87;9.43;;;;;;;4.75;56.86;99247.69;10497723;28;20627;-66
2023/10/18 04:47:49;;;;;;;11.67;9.80;;;;;;;4.41;57.35;99303.34;10492856;28;20250;-66
2023/10/18 04:52:52;;;;;;;11.80;9.37;;;;;;;4.84;56.95;99237.94;10500903;28;20304;-66
2023/10/18 04:57:53;;;;;;;12.03;9.43;;;;;;;5.04;57.93;99100.59;10497414;28;20250;-66
2023/10/18 05:02:58;;;;;;;11.80;9.97;;;;;;;4.79;57.82;99142.16;10500589;28;20235;-66
2023/10/18 05:08:00;;;;;;;11.97;9.73;;;;;;;5.12;56.54;99158.97;10494454;28;20226;-66
2023/10/18 05:13:11;;;;;;;10.67;9.00;;;;;;;5.00;57.63;99083.38;10497875;28;20725;-66
2023/10/18 05:18:15;;;;;;;13.23;9.23;;;;;;;4.62;57.27;99226.09;10501291;28;20237;-66
2023/10/18 05:23:22;;;;;;;13.33;10.03;;;;;;;5.47;57.00;99039.41;10500646;28;20569;-66
2023/10/18 05:28:28;;;;;;;12.27;10.70;;;;;;;4.16;57.63;99304.97;10496803;28;20717;-66
2023/10/18 05:43:46;;;;;;;12.90;11.10;;;;;;;4.69;57.51;99146.78;10501728;28;20782;-66
2023/10/18 05:48:48;;;;;;;13.70;9.37;;;;;;;5.67;56.31;99008.88;10472268;28;20321;-66
2023/10/18 05:53:50;;;;;;;11.70;9.87;;;;;;;3.76;58.30;99338.03;10504675;28;20717;-66
2023/10/18 05:59:16;;;;;;;13.43;11.17;;;;;;;4.03;59.45;99187.00;10470493;28;20349;-66
2023/10/18 06:04:23;;;;;;;12.20;10.17;;;;;;;4.92;57.35;99118.66;10463793;28;20333;-67
2023/10/18 06:09:26;;;;;;;12.70;10.37;;;;;;;4.26;58.73;99169.78;10497287;28;20741;-66
2023/10/18 06:14:41;;;;;;;12.20;10.20;;;;;;;4.52;58.33;99127.34;10475876;28;20792;-66
2023/10/18 06:19:45;;;;;;;13.77;10.93;;;;;;;4.03;59.19;99165.00;10496284;28;20254;-66
2023/10/18 06:24:48;;;;;;;13.10;11.27;;;;;;;4.12;59.05;99136.75;10498337;28;20237;-66
2023/10/18 06:29:53;;;;;;;12.83;11.17;;;;;;;4.35;59.00;99090.19;10502578;28;20246;-66
2023/10/18 06:34:58;;;;;;;13.47;10.07;;;;;;;4.77;59.22;98963.91;10475045;28;20798;-68
2023/10/18 06:40:00;;;;;;;14.57;10.67;;;;;;;3.87;59.80;99144.59;10495392;28;20265;-67
2023/10/18 06:45:10;;;;;;;14.27;11.07;;;;;;;4.66;57.73;99099.38;10501840;28;20246;-65
2023/10/18 06:50:13;;;;;;;13.53;11.77;;;;;;;3.99;58.83;99206.88;10477749;28;20243;-65
2023/10/18 06:55:21;;;;;;;13.50;11.03;;;;;;;4.49;58.74;99088.78;10482667;28;20241;-65
2023/10/18 07:00:30;;;;;;;16.10;12.50;;;;;;;4.77;57.51;99158.22;10467384;28;20223;-65
2023/10/18 07:05:35;;;;;;;14.37;10.70;;;;;;;4.95;57.48;99118.34;10477259;28;20940;-65
2023/10/18 07:10:54;;;;;;;15.17;12.00;;;;;;;4.75;57.71;99151.44;10481282;28;20250;-65
2023/10/18 07:16:38;;;;;;;13.07;10.97;;;;;;;6.27;55.66;98966.72;10467502;28;20326;-67
2023/10/18 07:21:38;;;;;;;13.20;10.80;;;;;;;6.04;55.16;99068.47;10422096;28;20617;-65
2023/10/18 07:26:40;;;;;;;15.60;12.60;;;;;;;4.63;56.91;99270.16;10465243;28;20227;-65
2023/10/18 07:31:44;;;;;;;14.70;11.80;;;;;;;4.72;57.45;99187.03;10466874;28;20231;-65
2023/10/18 07:36:47;;;;;;;15.70;12.80;;;;;;;5.02;57.40;99128.28;10469745;28;20758;-67
2023/10/18 07:41:49;;;;;;;16.77;11.90;;;;;;;5.88;55.21;99117.13;10507624;28;20275;-67
2023/10/18 07:46:50;;;;;;;14.27;11.93;;;;;;;5.84;54.76;99210.56;10504452;28;20231;-66
2023/10/18 07:51:59;;;;;;;15.03;11.43;;;;;;;7.89;51.92;99075.59;10483342;28;20275;-67
2023/10/18 07:57:01;;;;;;;15.83;11.10;;;;;;;8.00;50.97;99144.41;10504414;28;20231;-67
2023/10/18 08:02:12;;;;;;;13.43;10.77;;;;;;;6.67;53.76;99161.53;10462925;28;20538;-66
2023/10/18 08:07:15;;;;;;;13.80;10.87;;;;;;;5.80;54.64;99304.84;10434102;28;21027;-68
2023/10/18 08:12:28;;;;;;;21.33;15.10;;;;;;;7.71;52.63;99020.84;10482047;28;20294;-68
2023/10/18 08:17:42;;;;;;;35.23;27.07;;;;;;;6.25;53.97;99264.50;10466522;28;20234;-69
2023/10/18 08:22:46;;;;;;;21.13;15.73;;;;;;;6.96;52.96;99182.16;10494875;28;20338;-68
2023/10/18 08:27:48;;;;;;;13.40;11.47;;;;;;;7.82;52.31;99098.63;10471088;28;20227;-69
2023/10/18 08:32:53;;;;;;;14.03;10.93;;;;;;;8.39;50.67;99185.94;10496988;28;20342;-68
2023/10/18 08:37:55;;;;;;;16.83;11.00;;;;;;;8.59;50.08;99182.69;10467278;28;20234;-68
2023/10/18 08:43:12;;;;;;;13.87;10.47;;;;;;;7.95;50.96;99263.19;10489752;28;20697;-68
2023/10/18 08:48:28;;;;;;;12.97;10.83;;;;;;;8.70;49.90;99187.56;10467554;28;20454;-68
2023/10/18 08:53:31;;;;;;;12.13;10.50;;;;;;;8.80;49.49;99281.47;10490659;28;20648;-68
2023/10/18 08:58:35;;;;;;;16.70;11.77;;;;;;;7.66;52.03;99201.66;10478257;28;21021;-68
2023/10/18 09:03:36;;;;;;;14.47;11.00;;;;;;;7.58;51.98;99217.69;10496043;28;20235;-68
2023/10/18 09:08:41;;;;;;;17.03;11.73;;;;;;;7.84;51.46;99275.06;10499040;28;20227;-68
2023/10/18 09:14:06;;;;;;;12.63;10.57;;;;;;;8.47;50.85;99179.66;10484228;28;20228;-67
2023/10/18 09:19:09;;;;;;;13.60;10.50;;;;;;;8.48;50.07;99259.47;10468480;28;20327;-68
2023/10/18 09:24:14;;;;;;;13.77;11.20;;;;;;;8.60;50.83;99134.50;10479393;28;20319;-68
2023/10/18 09:29:17;;;;;;;13.17;10.17;;;;;;;9.52;49.33;99076.09;10468935;28;20230;-68
2023/10/18 09:34:19;;;;;;;11.63;10.27;;;;;;;9.88;47.81;99148.06;10482034;28;20235;-68
2023/10/18 09:39:21;;;;;;;13.80;10.70;;;;;;;7.95;50.65;99304.00;10475188;28;20363;-68
2023/10/18 09:44:23;;;;;;;12.03;9.70;;;;;;;10.19;47.28;99124.59;10498283;28;20237;-68
2023/10/18 09:49:26;;;;;;;12.67;10.37;;;;;;;10.41;47.69;99103.91;10495573;28;20226;-68
2023/10/18 09:54:34;;;;;;;13.10;10.00;;;;;;;9.80;47.84;99171.41;10479878;28;20237;-68
2023/10/18 09:59:47;;;;;;;13.57;9.90;;;;;;;10.56;47.36;99098.41;10477066;28;20622;-68
2023/10/18 10:04:52;;;;;;;12.77;10.23;;;;;;;10.11;48.03;99104.22;10497961;28;20256;-68
2023/10/18 10:10:07;;;;;;;11.67;9.60;;;;;;;10.35;46.65;99228.56;10502447;28;20418;-68
2023/10/18 10:15:17;;;;;;;12.97;9.97;;;;;;;8.92;49.37;99241.00;10501607;28;20670;-67
2023/10/18 10:20:21;;;;;;;15.23;12.20;;;;;;;10.43;47.18;99132.13;10496970;28;20241;-67
2023/10/18 10:25:31;;;;;;;17.43;12.73;;;;;;;11.00;46.23;99119.38;10481533;28;20229;-67
2023/10/18 10:30:52;;;;;;;15.07;11.47;;;;;;;10.76;46.50;99150.16;10475862;28;20779;-67
2023/10/18 10:36:04;;;;;;;18.13;13.63;;;;;;;10.23;47.71;99196.22;10497103;28;20300;-68
2023/10/18 10:41:21;;;;;;;29.80;23.93;;;;;;;9.79;48.71;99119.81;10428207;28;20314;-67
2023/10/18 10:46:35;;;;;;;42.17;29.03;;;;;;;10.57;47.86;99047.38;10484721;28;20333;-68
2023/10/18 10:51:49;;;;;;;19.80;15.47;;;;;;;11.03;47.22;99027.91;10457116;28;20234;-67
2023/10/18 10:56:53;;;;;;;11.03;9.77;;;;;;;9.77;48.17;99154.75;10471354;28;20721;-67
2023/10/18 11:06:20;;;;;;;10.93;9.43;;;;;;;11.17;47.26;98918.13;10493300;27;20743;-67
2023/10/18 11:11:22;;;;;;;14.53;10.97;;;;;;;9.49;48.88;99165.41;10461542;28;20238;-67
2023/10/18 11:16:24;;;;;;;11.83;9.23;;;;;;;9.27;49.50;99081.03;10467972;28;20322;-65
2023/10/18 11:21:29;;;;;;;43.17;30.80;;;;;;;10.44;47.62;99069.56;10463312;28;20262;-68
2023/10/18 11:26:39;;;;;;;11.50;10.17;;;;;;;11.10;47.75;98911.97;10464882;28;20322;-69
2023/10/18 11:31:44;;;;;;;14.50;9.70;;;;;;;10.30;48.16;99001.03;10464453;28;20732;-68
2023/10/18 11:36:49;;;;;;;10.50;8.60;;;;;;;10.40;47.50;99088.91;10459778;28;20250;-68
2023/10/18 11:41:53;;;;;;;9.33;8.33;;;;;;;11.13;47.08;98946.34;10465915;28;20323;-69
2023/10/18 11:47:12;;;;;;;9.57;8.57;;;;;;;10.85;47.32;99009.81;10460952;28;20239;-68
2023/10/18 11:52:21;;;;;;;10.10;8.43;;;;;;;10.57;48.21;98958.28;10464858;28;20231;-68
2023/10/18 11:57:35;;;;;;;10.97;8.80;;;;;;;9.90;48.76;99054.34;10545970;28;20324;-69
2023/10/18 12:02:37;;;;;;;11.80;8.47;;;;;;;11.17;47.28;98916.28;10548939;28;20230;-67
2023/10/18 12:07:44;;;;;;;10.90;8.70;;;;;;;11.75;47.32;98866.44;10510978;28;20229;-68
2023/10/18 12:12:49;;;;;;;12.27;8.20;;;;;;;9.99;48.80;99030.94;10549062;28;20226;-68
2023/10/18 12:17:52;;;;;;;9.77;8.53;;;;;;;11.77;46.91;98851.78;10517456;28;20233;-68
2023/10/18 12:22:53;;;;;;;13.27;8.97;;;;;;;10.82;48.18;98889.78;10521611;28;20237;-69
2023/10/18 12:27:55;;;;;;;11.13;8.97;;;;;;;10.88;48.19;98969.25;10515898;28;20233;-69
2023/10/18 12:32:57;;;;;;;13.17;8.10;;;;;;;10.09;48.88;98991.28;10520974;28;20337;-69
2023/10/18 12:37:59;;;;;;;11.10;8.73;;;;;;;11.34;48.33;98800.63;10518236;28;20230;-68
2023/10/18 12:43:05;;;;;;;11.77;9.47;;;;;;;11.75;47.64;98778.00;10520052;28;20234;-68
2023/10/18 12:48:08;;;;;;;16.67;9.77;;;;;;;11.33;48.08;98845.38;10518659;28;20288;-66
2023/10/18 12:53:18;;;;;;;12.80;8.33;;;;;;;11.56;48.26;98827.97;10518955;28;20235;-68
2023/10/18 12:58:20;;;;;;;8.73;7.53;;;;;;;10.68;49.86;98806.00;10517650;28;20258;-68
2023/10/18 13:03:23;;;;;;;9.93;8.83;;;;;;;11.37;48.37;98926.09;10518982;28;20796;-69
2023/10/18 13:08:30;;;;;;;16.60;9.57;;;;;;;10.89;50.85;98850.44;10518182;28;20222;-68
2023/10/18 13:13:37;;;;;;;11.20;9.10;;;;;;;10.80;50.60;98818.75;10521039;28;20272;-68
2023/10/18 13:18:39;;;;;;;11.63;8.93;;;;;;;11.63;49.46;98735.00;10498071;28;20227;-68
2023/10/18 13:23:49;;;;;;;11.80;9.57;;;;;;;11.58;49.03;98789.19;10528299;28;20237;-68
2023/10/18 13:28:51;;;;;;;9.97;8.70;;;;;;;11.48;50.70;98710.34;10513249;28;20292;-68
2023/10/18 13:33:54;;;;;;;9.73;8.03;;;;;;;12.17;48.57;98712.06;10493406;28;20292;-68
2023/10/18 13:38:55;;;;;;;9.67;8.23;;;;;;;11.75;49.69;98767.28;10515593;28;20237;-68
2023/10/18 13:43:58;;;;;;;11.93;8.60;;;;;;;11.48;49.93;98790.72;10517413;28;21063;-67
2023/10/18 13:48:59;;;;;;;11.33;8.73;;;;;;;11.96;49.67;98691.00;10514045;28;20829;-67
2023/10/18 13:54:01;;;;;;;11.63;8.00;;;;;;;13.09;48.82;98582.34;10507635;28;20226;-68
2023/10/18 13:59:04;;;;;;;13.03;9.87;;;;;;;11.91;50.97;98718.50;10514414;28;20230;-71
2023/10/18 14:04:08;;;;;;;34.20;23.40;;;;;;;12.31;50.39;98659.09;10497574;28;20316;-72
2023/10/18 14:09:12;;;;;;;20.33;14.50;;;;;;;13.54;48.82;98550.66;10514950;28;20234;-70
2023/10/18 14:14:14;;;;;;;12.70;10.03;;;;;;;11.67;51.71;98701.34;10490881;28;20649;-69
2023/10/18 14:19:19;;;;;;;10.37;7.60;;;;;;;11.38;52.38;98670.63;10436660;28;20227;-70
2023/10/18 14:24:28;;;;;;;17.30;12.03;;;;;;;12.69;51.26;98525.75;10456079;28;20249;-69
2023/10/18 14:29:31;;;;;;;12.37;10.07;;;;;;;12.12;51.12;98700.34;10485635;28;20230;-70
2023/10/18 14:34:33;;;;;;;14.80;11.10;;;;;;;11.25;52.74;98672.38;10515941;28;20727;-68
2023/10/18 14:39:35;;;;;;;14.83;8.33;;;;;;;12.23;51.69;98589.66;10511105;28;20323;-70
2023/10/18 14:44:40;;;;;;;11.57;8.17;;;;;;;12.58;51.96;98505.06;10517253;28;20245;-68
2023/10/18 14:49:43;;;;;;;10.43;8.20;;;;;;;11.81;52.32;98680.63;10510930;28;20744;-69
2023/10/18 14:54:46;;;;;;;9.77;7.47;;;;;;;11.63;52.92;98659.97;10513753;28;20249;-69
2023/10/18 14:59:48;;;;;;;12.20;7.87;;;;;;;10.73;55.38;98636.81;10514114;28;20226;-68
2023/10/18 15:04:50;;;;;;;12.63;8.17;;;;;;;10.56;56.11;98654.34;10515373;28;20242;-69
2023/10/18 15:09:51;;;;;;;10.80;7.50;;;;;;;11.48;54.80;98523.63;10514571;28;20226;-73
2023/10/18 15:14:53;;;;;;;11.80;8.20;;;;;;;11.83;53.85;98511.53;10518777;28;20218;-70
2023/10/18 15:19:55;;;;;;;11.37;8.23;;;;;;;11.51;54.54;98546.50;10510725;28;20720;-70
2023/10/18 15:24:59;;;;;;;10.23;7.97;;;;;;;11.54;53.96;98556.75;10494712;28;20234;-67
2023/10/18 15:30:04;;;;;;;9.40;7.37;;;;;;;13.87;48.72;98539.28;10512542;28;20322;-67
2023/10/18 15:35:06;;;;;;;12.93;9.67;;;;;;;13.79;49.19;98555.78;10489413;28;20230;-67
2023/10/18 15:40:15;;;;;;;13.10;9.17;;;;;;;12.97;50.13;98619.06;10512420;28;20676;-67
2023/10/18 15:45:17;;;;;;;10.77;8.60;;;;;;;12.74;50.77;98628.69;10496040;28;20790;-67
2023/10/18 15:50:19;;;;;;;12.00;9.10;;;;;;;13.75;49.15;98539.31;10514749;28;20586;-68
2023/10/18 15:55:21;;;;;;;12.17;8.53;;;;;;;12.70;50.43;98616.78;10522907;28;20230;-66
2023/10/18 16:00:23;;;;;;;9.77;7.87;;;;;;;12.16;52.05;98605.84;10500247;28;20311;-67
2023/10/18 16:05:31;;;;;;;11.00;8.60;;;;;;;12.35;51.32;98603.13;10521144;28;20312;-67
2023/10/18 16:10:33;;;;;;;11.83;8.30;;;;;;;;;;10515316;28;20237;-66
2023/10/18 16:15:35;;;;;;;12.60;8.50;;;;;;;11.87;52.37;98670.91;10515111;28;20231;-66
2023/10/18 16:20:40;;;;;;;12.10;8.30;;;;;;;12.97;50.22;98541.19;10509167;28;20229;-65
2023/10/18 16:25:42;;;;;;;9.23;8.17;;;;;;;12.13;51.25;98667.97;10519367;28;20235;-65
2023/10/18 16:30:45;;;;;;;9.90;7.93;;;;;;;12.55;50.23;98601.06;10516541;28;20225;-65
2023/10/18 16:35:54;;;;;;;10.83;8.23;;;;;;;11.95;51.45;98590.19;10519985;28;20230;-67
2023/10/18 16:41:04;;;;;;;11.83;8.83;;;;;;;12.39;50.93;98515.81;10519393;28;20227;-66
2023/10/18 16:46:09;;;;;;;10.90;8.53;;;;;;;12.22;50.40;98584.53;10521242;28;20676;-68
2023/10/18 16:51:11;;;;;;;10.00;8.63;;;;;;;13.18;49.03;98472.69;10519667;28;20217;-67
2023/10/18 16:56:14;;;;;;;10.83;8.50;;;;;;;11.74;50.89;98611.03;10520119;28;20222;-66
2023/10/18 17:01:20;;;;;;;10.33;8.80;;;;;;;12.90;49.01;98487.59;10517533;28;20240;-67
2023/10/18 17:06:22;;;;;;;10.80;8.87;;;;;;;12.85;49.09;98527.75;10519955;28;20246;-67
2023/10/18 17:11:24;;;;;;;11.83;9.50;;;;;;;12.63;49.68;98537.38;10499448;28;20939;-67
2023/10/18 17:16:28;;;;;;;12.73;9.53;;;;;;;12.07;50.72;98572.31;10518072;28;20231;-67
2023/10/18 17:21:31;;;;;;;13.37;9.60;;;;;;;12.32;50.41;98547.28;10518192;28;20692;-67
2023/10/18 17:26:32;;;;;;;13.07;10.60;;;;;;;12.40;50.57;98525.50;10518114;28;20376;-67
2023/10/18 17:31:34;;;;;;;15.83;12.53;;;;;;;12.15;51.31;98461.25;10518715;28;20247;-67
2023/10/18 17:36:36;;;;;;;13.10;10.30;;;;;;;12.17;50.51;98502.88;10523283;28;20323;-67
2023/10/18 17:41:38;;;;;;;12.70;10.47;;;;;;;12.35;50.22;98477.06;10518343;28;20217;-67
2023/10/18 17:46:41;;;;;;;11.20;9.77;;;;;;;12.33;50.76;98463.91;10518864;28;20373;-67
2023/10/18 17:51:43;;;;;;;13.77;9.90;;;;;;;11.75;52.20;98515.34;10506187;28;21168;-67
2023/10/18 17:56:45;;;;;;;13.27;10.67;;;;;;;12.99;50.26;98441.63;10519188;28;20335;-67
2023/10/18 18:01:51;;;;;;;12.47;9.77;;;;;;;12.97;50.42;98457.16;10505786;28;20293;-67
2023/10/18 18:06:54;;;;;;;12.10;9.90;;;;;;;12.84;51.35;98402.66;10512454;28;20958;-67
2023/10/18 18:11:56;;;;;;;19.13;14.60;;;;;;;12.78;51.34;98416.19;10516154;28;20222;-67
2023/10/18 18:16:58;;;;;;;17.47;13.63;;;;;;;12.74;52.00;98397.84;10510855;28;20234;-70
2023/10/18 18:22:00;;;;;;;15.83;13.03;;;;;;;13.13;49.84;98432.28;10502538;28;20758;-70
2023/10/18 18:27:02;;;;;;;16.70;12.97;;;;;;;12.40;51.74;98471.84;10510587;28;20266;-70
2023/10/18 18:32:04;;;;;;;15.00;12.60;;;;;;;11.68;53.44;98536.06;10515798;28;20226;-64
2023/10/18 18:37:05;;;;;;;14.43;11.80;;;;;;;10.75;55.31;98476.06;10514702;28;20234;-64
2023/10/18 18:42:07;;;;;;;13.70;12.20;;;;;;;9.68;57.80;98500.63;10517248;28;20724;-67
2023/10/18 18:47:09;;;;;;;16.13;12.53;;;;;;;12.71;51.95;98344.63;10515982;28;20744;-66
2023/10/18 18:52:11;;;;;;;18.60;13.40;;;;;;;11.38;55.21;98441.09;10499658;28;20253;-66
2023/10/18 18:57:13;;;;;;;17.20;13.33;;;;;;;12.81;51.42;98384.31;10490740;28;20223;-66
2023/10/18 19:02:14;;;;;;;15.13;12.40;;;;;;;12.85;51.82;98357.81;10497102;28;20287;-67
2023/10/18 19:07:16;;;;;;;14.33;11.60;;;;;;;12.82;52.05;98371.72;10492511;28;20284;-68
2023/10/18 19:12:20;;;;;;;15.67;12.27;;;;;;;13.17;50.95;98379.72;10519012;28;20233;-65
2023/10/18 19:17:22;;;;;;;14.13;11.87;;;;;;;12.41;53.29;98410.97;10500137;28;20227;-65
2023/10/18 19:22:24;;;;;;;15.27;12.27;;;;;;;12.76;51.94;98408.34;10518672;28;20229;-65
2023/10/18 19:27:26;;;;;;;17.70;12.97;;;;;;;12.35;53.38;98418.03;10492404;28;22394;-66
2023/10/18 19:32:27;;;;;;;15.07;11.97;;;;;;;13.08;51.80;98379.28;10499602;28;20725;-68
2023/10/18 19:37:29;;;;;;;15.50;12.50;;;;;;;11.88;53.97;98480.34;10522692;28;20742;-69
2023/10/18 19:42:31;;;;;;;15.07;11.97;;;;;;;13.29;51.18;98377.91;10523100;28;20251;-66
2023/10/18 19:47:33;;;;;;;17.07;12.57;;;;;;;13.51;51.06;98387.19;10520474;28;20724;-68
2023/10/18 19:52:35;;;;;;;17.33;12.13;;;;;;;13.66;50.62;98349.84;10525322;28;20620;-68
2023/10/18 19:57:36;;;;;;;14.60;12.27;;;;;;;13.35;50.49;98423.69;10502585;28;20226;-69
2023/10/18 20:02:40;;;;;;;16.47;12.37;;;;;;;13.04;52.42;98385.34;10522283;28;20325;-69
2023/10/18 20:07:42;;;;;;;14.13;11.67;;;;;;;13.38;50.85;98383.72;10525043;28;20625;-69
2023/10/18 20:12:43;;;;;;;15.23;11.77;;;;;;;13.01;51.86;98392.03;10523794;28;20314;-65
2023/10/18 20:17:45;;;;;;;16.60;12.70;;;;;;;12.54;53.13;98406.22;10516775;28;20230;-67
2023/10/18 20:22:48;;;;;;;15.57;11.80;;;;;;;13.72;50.22;98331.97;10520724;28;20609;-65
2023/10/18 20:27:50;;;;;;;16.33;12.33;;;;;;;13.55;50.69;98343.47;10518200;28;20237;-65
2023/10/18 20:32:52;;;;;;;15.00;12.23;;;;;;;13.42;51.67;98344.56;10519240;28;20238;-65
2023/10/18 20:37:54;;;;;;;15.03;12.33;;;;;;;12.95;51.63;98422.47;10519132;28;20234;-65
2023/10/18 20:42:56;;;;;;;16.30;12.70;;;;;;;13.48;50.99;98362.44;10502991;28;20226;-65
2023/10/18 20:48:06;;;;;;;15.67;12.73;;;;;;;13.66;50.80;98312.22;10512859;28;20377;-65
2023/10/18 20:53:15;;;;;;;16.17;13.33;;;;;;;13.36;51.72;98377.78;10501588;28;20240;-64
2023/10/18 20:58:17;;;;;;;16.83;12.93;;;;;;;13.99;49.78;98329.50;10515598;28;20230;-64
2023/10/18 21:03:24;;;;;;;14.73;12.10;;;;;;;12.88;52.57;98395.75;10521219;28;20235;-64
2023/10/18 21:08:26;;;;;;;15.23;12.73;;;;;;;14.06;49.84;98313.19;10508117;28;20234;-64
2023/10/18 21:13:27;;;;;;;17.27;12.77;;;;;;;13.79;50.49;98372.94;10515888;28;20306;-64
2023/10/18 21:18:29;;;;;;;14.43;11.93;;;;;;;14.03;49.81;98358.31;10517604;28;20267;-64
2023/10/18 21:23:33;;;;;;;14.03;11.57;;;;;;;13.47;51.88;98328.53;10517946;28;20253;-64
2023/10/18 21:28:35;;;;;;;17.50;12.40;;;;;;;13.70;51.07;98305.31;10513252;28;20235;-64
2023/10/18 21:33:37;;;;;;;15.23;12.43;;;;;;;13.76;49.68;98312.41;10493385;28;20229;-64
2023/10/18 21:38:41;;;;;;;14.83;12.40;;;;;;;13.08;51.25;98357.81;10515948;28;20231;-64
2023/10/18 21:43:45;;;;;;;14.73;12.40;;;;;;;13.16;51.82;98302.91;10502064;28;20230;-64
2023/10/18 21:48:46;;;;;;;14.40;11.23;;;;;;;12.67;52.14;98340.78;10514501;28;20303;-65
2023/10/18 21:53:48;;;;;;;16.40;12.90;;;;;;;13.27;52.21;98272.50;10514680;28;20381;-64
2023/10/18 21:58:51;;;;;;;15.60;12.60;;;;;;;13.30;51.67;98295.44;10510226;28;20385;-64
2023/10/18 22:03:55;;;;;;;15.17;12.70;;;;;;;13.82;50.70;98219.22;10516048;28;20578;-63
2023/10/18 22:09:05;;;;;;;17.90;13.30;;;;;;;12.97;52.66;98258.47;10507216;28;20535;-64
2023/10/18 22:14:19;;;;;;;17.73;13.93;;;;;;;11.94;53.93;98366.03;10511904;28;20226;-64
2023/10/18 22:19:32;;;;;;;17.80;14.17;;;;;;;13.78;51.04;98201.94;10514716;28;20222;-64
2023/10/18 22:24:37;;;;;;;17.87;13.23;;;;;;;13.06;52.52;98265.13;10513623;28;20748;-64
2023/10/18 22:29:41;;;;;;;17.43;12.97;;;;;;;13.78;51.20;98199.25;10493884;28;20345;-65
2023/10/18 22:34:42;;;;;;;15.20;12.10;;;;;;;13.82;51.23;98189.66;10512906;28;21340;-65
2023/10/18 22:39:49;;;;;;;16.67;13.07;;;;;;;14.26;50.39;98207.84;10510258;28;20226;-64
2023/10/18 22:45:08;;;;;;;18.40;13.73;;;;;;;13.53;52.20;98200.47;10514837;28;20230;-64
2023/10/18 22:55:25;;;;;;;16.73;12.80;;;;;;;13.07;52.43;98321.25;10512592;28;20953;-64
2023/10/18 23:00:31;;;;;;;14.53;12.60;;;;;;;13.87;51.42;98187.06;10499822;28;20681;-64
2023/10/18 23:05:35;;;;;;;17.70;13.47;;;;;;;13.96;50.60;98219.72;10517121;28;20234;-64
2023/10/18 23:10:45;;;;;;;16.47;13.17;;;;;;;13.59;51.61;98221.00;10497663;28;20318;-64
2023/10/18 23:15:47;;;;;;;16.80;12.87;;;;;;;13.38;51.75;98272.72;10492562;28;20673;-64
2023/10/18 23:31:44;;;;;;;16.13;13.00;;;;;;;10.93;58.15;98298.66;10504813;28;20717;-64
2023/10/18 23:36:56;;;;;;;17.00;13.63;;;;;;;13.85;52.30;98159.56;10515909;28;20252;-64
2023/10/18 23:42:18;;;;;;;17.30;12.17;;;;;;;13.67;52.13;98217.91;10516232;28;20226;-64
2023/10/18 23:48:27;;;;;;;15.97;12.80;;;;;;;13.13;53.19;98271.16;10508243;28;20241;-64
2023/10/18 23:58:15;;;;;;;15.60;12.73;;;;;;;13.14;53.45;98173.41;10513490;28;20718;-64
